Terminal Aerodrome Forecast
Issued by NWS

Home | Current Version | Previous Version | Text Only | Print | Product List | Glossary On
Versions: 1 2 3 4 5 6 7 8 9 10 11 12 13 14 15 16 17 18 19
935
FTUS43 KDLH 131733
TAFHIB
TAF
KHIB 131733Z 1318/1418 25006KT P6SM SKC
     FM140000 14005KT P6SM BKN200
     FM141400 15009KT P6SM OVC025
     FM141500 16010KT P6SM VCSH OVC025 PROB30 1415/1418 3SM -SN
      OVC020=

USA.gov is the U.S. government's official web portal to all federal, state and local government web resources and services.